sensor_id;sensor_type;location;lat;lon;timestamp;temperature;humidity
49777;DHT22;35673;51.482;7.436;2023-04-01T00:00:21;10.20;99.90
49777;DHT22;35673;51.482;7.436;2023-04-01T00:02:47;10.00;99.90
49777;DHT22;35673;51.482;7.436;2023-04-01T00:05:12;10.00;99.90
49777;DHT22;35673;51.482;7.436;2023-04-01T00:07:38;10.00;99.90
49777;DHT22;35673;51.482;7.436;2023-04-01T00:10:08;9.90;99.90
49777;DHT22;35673;51.482;7.436;2023-04-01T00:12:34;9.90;99.90
49777;DHT22;35673;51.482;7.436;2023-04-01T00:15:00;9.80;99.90
49777;DHT22;35673;51.482;7.436;2023-04-01T00:17:25;9.80;99.90
49777;DHT22;35673;51.482;7.436;2023-04-01T00:19:51;9.90;99.90
49777;DHT22;35673;51.482;7.436;2023-04-01T00:22:16;9.90;99.90
49777;DHT22;35673;51.482;7.436;2023-04-01T00:24:42;9.80;99.90
49777;DHT22;35673;51.482;7.436;2023-04-01T00:27:07;9.90;99.90
49777;DHT22;35673;51.482;7.436;2023-04-01T00:29:33;9.90;99.90
49777;DHT22;35673;51.482;7.436;2023-04-01T00:31:59;9.90;99.90
49777;DHT22;35673;51.482;7.436;2023-04-01T00:34:24;9.90;99.90
49777;DHT22;35673;51.482;7.436;2023-04-01T00:36:50;9.90;99.90
49777;DHT22;35673;51.482;7.436;2023-04-01T00:39:17;9.90;99.90
49777;DHT22;35673;51.482;7.436;2023-04-01T00:41:43;9.90;99.90
49777;DHT22;35673;51.482;7.436;2023-04-01T00:44:19;9.80;99.90
49777;DHT22;35673;51.482;7.436;2023-04-01T00:46:45;9.80;99.90
49777;DHT22;35673;51.482;7.436;2023-04-01T00:49:11;9.80;99.90
49777;DHT22;35673;51.482;7.436;2023-04-01T00:51:37;9.80;99.90
49777;DHT22;35673;51.482;7.436;2023-04-01T00:54:04;9.80;99.90
49777;DHT22;35673;51.482;7.436;2023-04-01T00:56:34;9.90;99.90
49777;DHT22;35673;51.482;7.436;2023-04-01T00:59:02;9.80;99.90
49777;DHT22;35673;51.482;7.436;2023-04-01T01:01:29;9.80;99.90
49777;DHT22;35673;51.482;7.436;2023-04-01T01:03:55;9.80;99.90
49777;DHT22;35673;51.482;7.436;2023-04-01T01:08:52;9.80;99.90
49777;DHT22;35673;51.482;7.436;2023-04-01T01:11:22;9.80;99.90
49777;DHT22;35673;51.482;7.436;2023-04-01T01:13:54;9.90;99.90
49777;DHT22;35673;51.482;7.436;2023-04-01T01:16:24;9.80;99.90
49777;DHT22;35673;51.482;7.436;2023-04-01T01:19:07;9.80;99.90
49777;DHT22;35673;51.482;7.436;2023-04-01T01:26:50;9.80;99.90
49777;DHT22;35673;51.482;7.436;2023-04-01T01:29:25;9.70;99.90
49777;DHT22;35673;51.482;7.436;2023-04-01T01:31:58;9.80;99.90
49777;DHT22;35673;51.482;7.436;2023-04-01T01:34:33;9.60;99.90
49777;DHT22;35673;51.482;7.436;2023-04-01T01:37:02;9.60;99.90
49777;DHT22;35673;51.482;7.436;2023-04-01T01:39:31;9.60;99.90
49777;DHT22;35673;51.482;7.436;2023-04-01T01:42:00;9.60;99.90
49777;DHT22;35673;51.482;7.436;2023-04-01T01:44:27;9.60;99.90
49777;DHT22;35673;51.482;7.436;2023-04-01T01:46:55;9.60;99.90
49777;DHT22;35673;51.482;7.436;2023-04-01T01:49:20;9.60;99.90
49777;DHT22;35673;51.482;7.436;2023-04-01T01:51:46;9.60;99.90
49777;DHT22;35673;51.482;7.436;2023-04-01T01:54:14;9.60;99.90
49777;DHT22;35673;51.482;7.436;2023-04-01T01:56:39;9.50;99.90
49777;DHT22;35673;51.482;7.436;2023-04-01T01:59:07;9.50;99.90
49777;DHT22;35673;51.482;7.436;2023-04-01T02:01:35;9.50;99.90
49777;DHT22;35673;51.482;7.436;2023-04-01T02:04:01;9.50;99.90
49777;DHT22;35673;51.482;7.436;2023-04-01T02:06:28;9.50;99.90
49777;DHT22;35673;51.482;7.436;2023-04-01T02:08:56;9.50;99.90
49777;DHT22;35673;51.482;7.436;2023-04-01T02:11:24;9.60;99.90
49777;DHT22;35673;51.482;7.436;2023-04-01T02:13:55;9.60;99.90
49777;DHT22;35673;51.482;7.436;2023-04-01T02:16:23;9.60;99.90
49777;DHT22;35673;51.482;7.436;2023-04-01T02:18:51;9.50;99.90
49777;DHT22;35673;51.482;7.436;2023-04-01T02:21:18;9.50;99.90
49777;DHT22;35673;51.482;7.436;2023-04-01T02:23:44;9.40;99.90
49777;DHT22;35673;51.482;7.436;2023-04-01T02:26:10;9.50;99.90
49777;DHT22;35673;51.482;7.436;2023-04-01T02:28:36;9.50;99.90
49777;DHT22;35673;51.482;7.436;2023-04-01T02:31:03;9.50;99.90
49777;DHT22;35673;51.482;7.436;2023-04-01T02:33:29;9.60;99.90
49777;DHT22;35673;51.482;7.436;2023-04-01T02:35:55;9.70;99.90
49777;DHT22;35673;51.482;7.436;2023-04-01T02:38:20;9.60;99.90
49777;DHT22;35673;51.482;7.436;2023-04-01T02:40:47;9.60;99.90
49777;DHT22;35673;51.482;7.436;2023-04-01T02:43:13;9.60;99.90
49777;DHT22;35673;51.482;7.436;2023-04-01T02:45:39;9.60;99.90
49777;DHT22;35673;51.482;7.436;2023-04-01T02:48:04;9.50;99.90
49777;DHT22;35673;51.482;7.436;2023-04-01T02:50:30;9.60;99.90
49777;DHT22;35673;51.482;7.436;2023-04-01T02:52:56;9.60;99.90
49777;DHT22;35673;51.482;7.436;2023-04-01T02:55:21;9.50;99.90
49777;DHT22;35673;51.482;7.436;2023-04-01T02:57:47;9.50;99.90
49777;DHT22;35673;51.482;7.436;2023-04-01T03:00:12;9.60;99.90
49777;DHT22;35673;51.482;7.436;2023-04-01T03:02:38;9.50;99.90
49777;DHT22;35673;51.482;7.436;2023-04-01T03:05:04;9.70;99.90
49777;DHT22;35673;51.482;7.436;2023-04-01T03:07:31;9.50;99.90
49777;DHT22;35673;51.482;7.436;2023-04-01T03:09:56;9.50;99.90
49777;DHT22;35673;51.482;7.436;2023-04-01T03:12:21;9.50;99.90
49777;DHT22;35673;51.482;7.436;2023-04-01T03:14:47;9.50;99.90
49777;DHT22;35673;51.482;7.436;2023-04-01T03:17:12;9.60;99.90
49777;DHT22;35673;51.482;7.436;2023-04-01T03:19:38;9.50;99.90
49777;DHT22;35673;51.482;7.436;2023-04-01T03:22:03;9.60;99.90
49777;DHT22;35673;51.482;7.436;2023-04-01T03:24:29;9.50;99.90
49777;DHT22;35673;51.482;7.436;2023-04-01T03:26:54;9.50;99.90
49777;DHT22;35673;51.482;7.436;2023-04-01T03:29:20;9.50;99.90
49777;DHT22;35673;51.482;7.436;2023-04-01T03:31:45;9.50;99.90
49777;DHT22;35673;51.482;7.436;2023-04-01T03:34:11;9.50;99.90
49777;DHT22;35673;51.482;7.436;2023-04-01T03:36:36;9.50;99.90
49777;DHT22;35673;51.482;7.436;2023-04-01T03:39:02;9.50;99.90
49777;DHT22;35673;51.482;7.436;2023-04-01T03:41:28;9.50;99.90
49777;DHT22;35673;51.482;7.436;2023-04-01T03:43:54;9.50;99.90
49777;DHT22;35673;51.482;7.436;2023-04-01T03:46:20;9.50;99.90
49777;DHT22;35673;51.482;7.436;2023-04-01T03:48:46;9.40;99.90
49777;DHT22;35673;51.482;7.436;2023-04-01T03:51:11;9.20;99.90
49777;DHT22;35673;51.482;7.436;2023-04-01T03:53:37;9.30;99.90
49777;DHT22;35673;51.482;7.436;2023-04-01T03:56:03;9.20;99.90
49777;DHT22;35673;51.482;7.436;2023-04-01T03:58:29;9.20;99.90
49777;DHT22;35673;51.482;7.436;2023-04-01T04:00:54;9.10;99.90
49777;DHT22;35673;51.482;7.436;2023-04-01T04:03:20;9.10;99.90
49777;DHT22;35673;51.482;7.436;2023-04-01T04:05:46;9.20;99.90
49777;DHT22;35673;51.482;7.436;2023-04-01T04:08:12;9.10;99.90
49777;DHT22;35673;51.482;7.436;2023-04-01T04:10:37;9.10;99.90
49777;DHT22;35673;51.482;7.436;2023-04-01T04:13:03;9.10;99.90
49777;DHT22;35673;51.482;7.436;2023-04-01T04:15:28;8.90;99.90
49777;DHT22;35673;51.482;7.436;2023-04-01T04:17:54;9.10;99.90
49777;DHT22;35673;51.482;7.436;2023-04-01T04:20:19;9.10;99.90
49777;DHT22;35673;51.482;7.436;2023-04-01T04:22:45;9.10;99.90
49777;DHT22;35673;51.482;7.436;2023-04-01T04:25:10;9.30;99.90
49777;DHT22;35673;51.482;7.436;2023-04-01T04:27:36;9.10;99.90
49777;DHT22;35673;51.482;7.436;2023-04-01T04:30:02;9.10;99.90
49777;DHT22;35673;51.482;7.436;2023-04-01T04:32:27;9.10;99.90
49777;DHT22;35673;51.482;7.436;2023-04-01T04:34:53;9.10;99.90
49777;DHT22;35673;51.482;7.436;2023-04-01T04:37:18;9.20;99.90
49777;DHT22;35673;51.482;7.436;2023-04-01T04:39:44;9.10;99.90
49777;DHT22;35673;51.482;7.436;2023-04-01T04:42:09;9.20;99.90
49777;DHT22;35673;51.482;7.436;2023-04-01T04:44:35;9.20;99.90
49777;DHT22;35673;51.482;7.436;2023-04-01T04:47:00;9.30;99.90
49777;DHT22;35673;51.482;7.436;2023-04-01T04:49:26;9.20;99.90
49777;DHT22;35673;51.482;7.436;2023-04-01T04:51:51;9.30;99.90
49777;DHT22;35673;51.482;7.436;2023-04-01T04:54:17;9.20;99.90
49777;DHT22;35673;51.482;7.436;2023-04-01T04:56:43;9.20;99.90
49777;DHT22;35673;51.482;7.436;2023-04-01T04:59:08;9.30;99.90
49777;DHT22;35673;51.482;7.436;2023-04-01T05:01:34;9.20;99.90
49777;DHT22;35673;51.482;7.436;2023-04-01T05:03:59;9.40;99.90
49777;DHT22;35673;51.482;7.436;2023-04-01T05:06:25;9.40;99.90
49777;DHT22;35673;51.482;7.436;2023-04-01T05:08:54;9.40;99.90
49777;DHT22;35673;51.482;7.436;2023-04-01T05:11:20;9.40;99.90
49777;DHT22;35673;51.482;7.436;2023-04-01T05:13:46;9.50;99.90
49777;DHT22;35673;51.482;7.436;2023-04-01T05:16:16;9.50;99.90
49777;DHT22;35673;51.482;7.436;2023-04-01T05:18:41;9.50;99.90
49777;DHT22;35673;51.482;7.436;2023-04-01T05:21:08;9.30;99.90
49777;DHT22;35673;51.482;7.436;2023-04-01T05:23:34;9.40;99.90
49777;DHT22;35673;51.482;7.436;2023-04-01T05:26:07;9.40;99.90
49777;DHT22;35673;51.482;7.436;2023-04-01T05:28:33;9.40;99.90
49777;DHT22;35673;51.482;7.436;2023-04-01T05:30:59;9.50;99.90
49777;DHT22;35673;51.482;7.436;2023-04-01T05:33:25;9.50;99.90
49777;DHT22;35673;51.482;7.436;2023-04-01T05:35:51;9.50;99.90
49777;DHT22;35673;51.482;7.436;2023-04-01T05:38:16;9.50;99.90
49777;DHT22;35673;51.482;7.436;2023-04-01T05:40:42;9.50;99.90
49777;DHT22;35673;51.482;7.436;2023-04-01T05:43:07;9.50;99.90
49777;DHT22;35673;51.482;7.436;2023-04-01T05:45:33;9.50;99.90
49777;DHT22;35673;51.482;7.436;2023-04-01T05:47:59;9.60;99.90
49777;DHT22;35673;51.482;7.436;2023-04-01T05:50:25;9.60;99.90
49777;DHT22;35673;51.482;7.436;2023-04-01T05:52:50;9.60;99.90
49777;DHT22;35673;51.482;7.436;2023-04-01T05:55:16;9.60;99.90
49777;DHT22;35673;51.482;7.436;2023-04-01T05:57:41;9.60;99.90
49777;DHT22;35673;51.482;7.436;2023-04-01T06:00:07;9.70;99.90
49777;DHT22;35673;51.482;7.436;2023-04-01T06:02:32;9.80;99.90
49777;DHT22;35673;51.482;7.436;2023-04-01T06:05:18;9.80;99.90
49777;DHT22;35673;51.482;7.436;2023-04-01T06:07:44;9.80;99.90
49777;DHT22;35673;51.482;7.436;2023-04-01T06:10:17;9.80;99.90
49777;DHT22;35673;51.482;7.436;2023-04-01T06:30:37;9.80;99.90
49777;DHT22;35673;51.482;7.436;2023-04-01T06:38:31;9.90;99.90
49777;DHT22;35673;51.482;7.436;2023-04-01T06:49:07;10.00;99.90
49777;DHT22;35673;51.482;7.436;2023-04-01T06:54:28;9.90;99.90
49777;DHT22;35673;51.482;7.436;2023-04-01T06:56:58;10.00;99.90
49777;DHT22;35673;51.482;7.436;2023-04-01T06:59:26;10.00;99.90
49777;DHT22;35673;51.482;7.436;2023-04-01T07:06:47;10.00;99.90
49777;DHT22;35673;51.482;7.436;2023-04-01T07:09:16;10.00;99.90
49777;DHT22;35673;51.482;7.436;2023-04-01T07:11:43;9.90;99.90
49777;DHT22;35673;51.482;7.436;2023-04-01T07:14:13;9.90;99.90
49777;DHT22;35673;51.482;7.436;2023-04-01T07:16:43;9.90;99.90
49777;DHT22;35673;51.482;7.436;2023-04-01T07:21:55;9.90;99.90
49777;DHT22;35673;51.482;7.436;2023-04-01T07:24:24;9.90;99.90
49777;DHT22;35673;51.482;7.436;2023-04-01T07:26:55;9.90;99.90
49777;DHT22;35673;51.482;7.436;2023-04-01T07:29:21;9.90;99.90
49777;DHT22;35673;51.482;7.436;2023-04-01T07:34:28;9.90;99.90
49777;DHT22;35673;51.482;7.436;2023-04-01T07:37:10;10.00;99.90
49777;DHT22;35673;51.482;7.436;2023-04-01T07:42:09;10.00;99.90
49777;DHT22;35673;51.482;7.436;2023-04-01T08:05:26;10.20;99.90
49777;DHT22;35673;51.482;7.436;2023-04-01T08:08:06;10.20;99.90
49777;DHT22;35673;51.482;7.436;2023-04-01T08:13:17;10.10;99.90
49777;DHT22;35673;51.482;7.436;2023-04-01T08:18:45;10.00;99.90
49777;DHT22;35673;51.482;7.436;2023-04-01T08:21:17;10.00;99.90
49777;DHT22;35673;51.482;7.436;2023-04-01T08:23:46;10.10;99.90
49777;DHT22;35673;51.482;7.436;2023-04-01T08:26:13;10.10;99.90
49777;DHT22;35673;51.482;7.436;2023-04-01T08:28:51;10.20;99.90
49777;DHT22;35673;51.482;7.436;2023-04-01T08:31:19;10.40;99.90
49777;DHT22;35673;51.482;7.436;2023-04-01T08:33:48;10.60;99.90
49777;DHT22;35673;51.482;7.436;2023-04-01T08:36:25;10.70;99.90
49777;DHT22;35673;51.482;7.436;2023-04-01T08:39:09;10.60;99.90
49777;DHT22;35673;51.482;7.436;2023-04-01T08:44:32;10.40;99.90
49777;DHT22;35673;51.482;7.436;2023-04-01T08:50:00;10.10;99.90
49777;DHT22;35673;51.482;7.436;2023-04-01T08:52:35;10.10;99.90
49777;DHT22;35673;51.482;7.436;2023-04-01T08:57:50;10.10;99.90
49777;DHT22;35673;51.482;7.436;2023-04-01T09:00:33;10.10;99.90
49777;DHT22;35673;51.482;7.436;2023-04-01T09:06:00;9.90;99.90
49777;DHT22;35673;51.482;7.436;2023-04-01T09:13:46;9.90;99.90
49777;DHT22;35673;51.482;7.436;2023-04-01T09:16:22;9.90;99.90
49777;DHT22;35673;51.482;7.436;2023-04-01T09:19:01;9.80;99.90
49777;DHT22;35673;51.482;7.436;2023-04-01T09:29:39;9.70;99.90
49777;DHT22;35673;51.482;7.436;2023-04-01T09:37:21;9.80;99.90
49777;DHT22;35673;51.482;7.436;2023-04-01T09:42:34;9.80;99.90
49777;DHT22;35673;51.482;7.436;2023-04-01T09:45:16;9.70;99.90
49777;DHT22;35673;51.482;7.436;2023-04-01T09:50:29;9.70;99.90
49777;DHT22;35673;51.482;7.436;2023-04-01T09:55:52;9.60;99.90
49777;DHT22;35673;51.482;7.436;2023-04-01T10:00:56;9.70;99.90
49777;DHT22;35673;51.482;7.436;2023-04-01T10:06:27;9.70;99.90
49777;DHT22;35673;51.482;7.436;2023-04-01T10:22:29;10.10;99.90
49777;DHT22;35673;51.482;7.436;2023-04-01T10:46:38;10.20;99.90
49777;DHT22;35673;51.482;7.436;2023-04-01T11:17:26;10.20;99.90
49777;DHT22;35673;51.482;7.436;2023-04-01T11:25:11;10.20;99.90
49777;DHT22;35673;51.482;7.436;2023-04-01T11:33:03;10.20;99.90
49777;DHT22;35673;51.482;7.436;2023-04-01T11:43:11;10.20;99.90
49777;DHT22;35673;51.482;7.436;2023-04-01T11:45:40;10.10;99.90
49777;DHT22;35673;51.482;7.436;2023-04-01T11:50:57;10.20;99.90
49777;DHT22;35673;51.482;7.436;2023-04-01T11:55:56;10.10;99.90
49777;DHT22;35673;51.482;7.436;2023-04-01T11:58:28;10.10;99.90
49777;DHT22;35673;51.482;7.436;2023-04-01T12:01:14;10.10;99.90
49777;DHT22;35673;51.482;7.436;2023-04-01T12:03:53;10.10;99.90
49777;DHT22;35673;51.482;7.436;2023-04-01T12:06:30;10.10;99.90
49777;DHT22;35673;51.482;7.436;2023-04-01T12:11:48;10.20;99.90
49777;DHT22;35673;51.482;7.436;2023-04-01T12:22:22;10.50;99.90
49777;DHT22;35673;51.482;7.436;2023-04-01T12:24:55;10.50;99.90
49777;DHT22;35673;51.482;7.436;2023-04-01T12:27:29;10.50;99.90
49777;DHT22;35673;51.482;7.436;2023-04-01T12:30:12;10.50;99.90
49777;DHT22;35673;51.482;7.436;2023-04-01T12:45:38;10.40;99.90
49777;DHT22;35673;51.482;7.436;2023-04-01T12:55:53;10.40;99.90
49777;DHT22;35673;51.482;7.436;2023-04-01T13:04:03;10.60;99.90
49777;DHT22;35673;51.482;7.436;2023-04-01T13:12:09;10.80;99.90
49777;DHT22;35673;51.482;7.436;2023-04-01T13:19:50;10.80;99.90
49777;DHT22;35673;51.482;7.436;2023-04-01T13:24:51;10.70;99.90
49777;DHT22;35673;51.482;7.436;2023-04-01T13:27:37;10.70;99.90
49777;DHT22;35673;51.482;7.436;2023-04-01T13:30:12;10.60;99.90
49777;DHT22;35673;51.482;7.436;2023-04-01T13:38:08;10.50;99.90
49777;DHT22;35673;51.482;7.436;2023-04-01T13:43:04;10.50;99.90
49777;DHT22;35673;51.482;7.436;2023-04-01T13:45:38;10.40;99.90
49777;DHT22;35673;51.482;7.436;2023-04-01T14:07:06;10.20;99.90
49777;DHT22;35673;51.482;7.436;2023-04-01T14:15:21;10.20;99.90
49777;DHT22;35673;51.482;7.436;2023-04-01T14:17:58;10.30;99.90
49777;DHT22;35673;51.482;7.436;2023-04-01T14:20:33;10.40;99.90
49777;DHT22;35673;51.482;7.436;2023-04-01T14:28:15;10.50;99.90
49777;DHT22;35673;51.482;7.436;2023-04-01T14:33:33;10.50;99.90
49777;DHT22;35673;51.482;7.436;2023-04-01T14:41:16;10.40;99.90
49777;DHT22;35673;51.482;7.436;2023-04-01T14:43:52;10.30;99.90
49777;DHT22;35673;51.482;7.436;2023-04-01T14:51:47;10.20;99.90
49777;DHT22;35673;51.482;7.436;2023-04-01T14:54:18;10.20;99.90
49777;DHT22;35673;51.482;7.436;2023-04-01T14:56:51;10.20;99.90
49777;DHT22;35673;51.482;7.436;2023-04-01T14:59:27;10.10;99.90
49777;DHT22;35673;51.482;7.436;2023-04-01T15:09:40;10.00;99.90
49777;DHT22;35673;51.482;7.436;2023-04-01T15:15:02;10.00;99.90
49777;DHT22;35673;51.482;7.436;2023-04-01T15:17:33;10.00;99.90
49777;DHT22;35673;51.482;7.436;2023-04-01T15:22:43;10.10;99.90
49777;DHT22;35673;51.482;7.436;2023-04-01T15:25:23;10.20;99.90
49777;DHT22;35673;51.482;7.436;2023-04-01T15:37:59;10.30;99.90
49777;DHT22;35673;51.482;7.436;2023-04-01T15:43:04;10.30;99.90
49777;DHT22;35673;51.482;7.436;2023-04-01T15:50:54;10.30;99.90
49777;DHT22;35673;51.482;7.436;2023-04-01T15:55:57;10.40;99.90
49777;DHT22;35673;51.482;7.436;2023-04-01T16:03:45;10.50;99.90
49777;DHT22;35673;51.482;7.436;2023-04-01T16:06:20;10.50;99.90
49777;DHT22;35673;51.482;7.436;2023-04-01T16:09:06;10.60;99.90
49777;DHT22;35673;51.482;7.436;2023-04-01T16:19:23;10.50;99.90
49777;DHT22;35673;51.482;7.436;2023-04-01T16:21:59;10.50;99.90
49777;DHT22;35673;51.482;7.436;2023-04-01T16:35:17;10.40;99.90
49777;DHT22;35673;51.482;7.436;2023-04-01T16:37:47;10.40;99.90
49777;DHT22;35673;51.482;7.436;2023-04-01T16:43:06;10.40;99.90
49777;DHT22;35673;51.482;7.436;2023-04-01T16:48:14;10.40;99.90
49777;DHT22;35673;51.482;7.436;2023-04-01T16:51:03;10.30;99.90
49777;DHT22;35673;51.482;7.436;2023-04-01T16:58:27;10.30;99.90
49777;DHT22;35673;51.482;7.436;2023-04-01T17:01:03;10.30;99.90
49777;DHT22;35673;51.482;7.436;2023-04-01T17:03:32;10.30;99.90
49777;DHT22;35673;51.482;7.436;2023-04-01T17:06:12;10.30;99.90
49777;DHT22;35673;51.482;7.436;2023-04-01T17:16:39;10.30;99.90
49777;DHT22;35673;51.482;7.436;2023-04-01T17:26:42;10.10;99.90
49777;DHT22;35673;51.482;7.436;2023-04-01T17:32:58;10.20;99.90
49777;DHT22;35673;51.482;7.436;2023-04-01T17:37:42;10.10;99.90
49777;DHT22;35673;51.482;7.436;2023-04-01T17:43:07;10.10;99.90
49777;DHT22;35673;51.482;7.436;2023-04-01T17:45:38;10.10;99.90
49777;DHT22;35673;51.482;7.436;2023-04-01T17:50:58;10.10;99.90
49777;DHT22;35673;51.482;7.436;2023-04-01T17:53:33;10.10;99.90
49777;DHT22;35673;51.482;7.436;2023-04-01T18:01:10;10.20;99.90
49777;DHT22;35673;51.482;7.436;2023-04-01T18:03:54;10.20;99.90
49777;DHT22;35673;51.482;7.436;2023-04-01T18:21:49;10.20;99.90
49777;DHT22;35673;51.482;7.436;2023-04-01T18:24:26;10.20;99.90
49777;DHT22;35673;51.482;7.436;2023-04-01T18:29:41;10.20;99.90
49777;DHT22;35673;51.482;7.436;2023-04-01T18:34:57;10.30;99.90
49777;DHT22;35673;51.482;7.436;2023-04-01T18:38:24;10.30;99.90
49777;DHT22;35673;51.482;7.436;2023-04-01T18:43:42;10.30;99.90
49777;DHT22;35673;51.482;7.436;2023-04-01T18:45:44;10.30;99.90
49777;DHT22;35673;51.482;7.436;2023-04-01T18:48:29;10.30;99.90
49777;DHT22;35673;51.482;7.436;2023-04-01T18:51:42;10.20;99.90
49777;DHT22;35673;51.482;7.436;2023-04-01T18:53:55;10.20;99.90
49777;DHT22;35673;51.482;7.436;2023-04-01T18:56:29;10.20;99.90
49777;DHT22;35673;51.482;7.436;2023-04-01T18:59:11;10.20;99.90
49777;DHT22;35673;51.482;7.436;2023-04-01T19:04:30;10.20;99.90
49777;DHT22;35673;51.482;7.436;2023-04-01T19:06:58;10.10;99.90
49777;DHT22;35673;51.482;7.436;2023-04-01T19:09:33;10.20;99.90
49777;DHT22;35673;51.482;7.436;2023-04-01T19:22:30;10.10;99.90
49777;DHT22;35673;51.482;7.436;2023-04-01T19:25:19;10.10;99.90
49777;DHT22;35673;51.482;7.436;2023-04-01T19:27:48;10.10;99.90
49777;DHT22;35673;51.482;7.436;2023-04-01T19:33:28;10.10;99.90
49777;DHT22;35673;51.482;7.436;2023-04-01T19:35:44;10.10;99.90
49777;DHT22;35673;51.482;7.436;2023-04-01T19:46:02;10.10;99.90
49777;DHT22;35673;51.482;7.436;2023-04-01T19:51:09;10.10;99.90
49777;DHT22;35673;51.482;7.436;2023-04-01T19:53:48;10.10;99.90
49777;DHT22;35673;51.482;7.436;2023-04-01T19:56:18;10.10;99.90
49777;DHT22;35673;51.482;7.436;2023-04-01T20:04:02;10.10;99.90
49777;DHT22;35673;51.482;7.436;2023-04-01T20:11:43;10.10;99.90
49777;DHT22;35673;51.482;7.436;2023-04-01T20:14:21;10.10;99.90
49777;DHT22;35673;51.482;7.436;2023-04-01T20:19:37;10.10;99.90
49777;DHT22;35673;51.482;7.436;2023-04-01T20:22:10;10.10;99.90
49777;DHT22;35673;51.482;7.436;2023-04-01T20:24:41;10.10;99.90
49777;DHT22;35673;51.482;7.436;2023-04-01T20:27:09;10.10;99.90
49777;DHT22;35673;51.482;7.436;2023-04-01T20:34:58;10.10;99.90
49777;DHT22;35673;51.482;7.436;2023-04-01T20:37:32;10.00;99.90
49777;DHT22;35673;51.482;7.436;2023-04-01T20:50:41;9.90;99.90
49777;DHT22;35673;51.482;7.436;2023-04-01T21:08:39;9.60;99.90
49777;DHT22;35673;51.482;7.436;2023-04-01T21:11:20;9.50;99.90
49777;DHT22;35673;51.482;7.436;2023-04-01T21:16:23;9.40;99.90
49777;DHT22;35673;51.482;7.436;2023-04-01T21:24:26;9.30;99.90
49777;DHT22;35673;51.482;7.436;2023-04-01T21:27:07;9.30;99.90
49777;DHT22;35673;51.482;7.436;2023-04-01T21:29:53;9.30;99.90
49777;DHT22;35673;51.482;7.436;2023-04-01T21:35:23;9.30;99.90
49777;DHT22;35673;51.482;7.436;2023-04-01T21:46:06;9.20;99.90
49777;DHT22;35673;51.482;7.436;2023-04-01T22:04:53;8.90;99.90
49777;DHT22;35673;51.482;7.436;2023-04-01T22:07:25;8.90;99.90
49777;DHT22;35673;51.482;7.436;2023-04-01T22:12:42;8.80;99.90
49777;DHT22;35673;51.482;7.436;2023-04-01T22:15:16;8.70;99.90
49777;DHT22;35673;51.482;7.436;2023-04-01T22:23:01;8.70;99.90
49777;DHT22;35673;51.482;7.436;2023-04-01T22:28:07;8.60;99.90
49777;DHT22;35673;51.482;7.436;2023-04-01T22:30:40;8.60;99.90
49777;DHT22;35673;51.482;7.436;2023-04-01T22:43:43;8.40;99.90
49777;DHT22;35673;51.482;7.436;2023-04-01T22:49:03;8.40;99.90
49777;DHT22;35673;51.482;7.436;2023-04-01T22:54:17;8.40;99.90
49777;DHT22;35673;51.482;7.436;2023-04-01T22:56:51;8.40;99.90
49777;DHT22;35673;51.482;7.436;2023-04-01T22:59:29;8.40;99.90
49777;DHT22;35673;51.482;7.436;2023-04-01T23:02:16;8.40;99.90
49777;DHT22;35673;51.482;7.436;2023-04-01T23:04:43;8.30;99.90
49777;DHT22;35673;51.482;7.436;2023-04-01T23:10:03;8.20;99.90
49777;DHT22;35673;51.482;7.436;2023-04-01T23:12:30;8.30;99.90
49777;DHT22;35673;51.482;7.436;2023-04-01T23:15:01;8.20;99.90
49777;DHT22;35673;51.482;7.436;2023-04-01T23:17:46;8.20;99.90
49777;DHT22;35673;51.482;7.436;2023-04-01T23:27:58;8.10;99.90
49777;DHT22;35673;51.482;7.436;2023-04-01T23:35:47;8.10;99.90
49777;DHT22;35673;51.482;7.436;2023-04-01T23:38:13;8.00;99.90
49777;DHT22;35673;51.482;7.436;2023-04-01T23:40:39;8.10;99.90
49777;DHT22;35673;51.482;7.436;2023-04-01T23:43:12;8.10;99.90
49777;DHT22;35673;51.482;7.436;2023-04-01T23:45:38;8.00;99.90
49777;DHT22;35673;51.482;7.436;2023-04-01T23:48:07;8.00;99.90
49777;DHT22;35673;51.482;7.436;2023-04-01T23:50:36;8.00;99.90
49777;DHT22;35673;51.482;7.436;2023-04-01T23:53:03;8.00;99.90
49777;DHT22;35673;51.482;7.436;2023-04-01T23:55:32;8.10;99.90
